createdAt,value
2022-11-22T00:03:31.599Z,7.85
2022-11-22T00:08:33.412Z,8.45
2022-11-22T00:13:34.848Z,7.03
2022-11-22T00:18:36.349Z,8.05
2022-11-22T00:23:37.773Z,7.05
2022-11-22T00:28:39.792Z,8.45
2022-11-22T00:33:41.241Z,6.93
2022-11-22T00:38:43.836Z,8.07
2022-11-22T00:43:45.267Z,5.28
2022-11-22T00:48:46.700Z,11.55
2022-11-22T00:53:48.151Z,10.32
2022-11-22T00:58:49.666Z,6.20
2022-11-22T01:03:51.028Z,4.38
2022-11-22T01:08:52.486Z,2.70
2022-11-22T01:13:53.863Z,3.72
2022-11-22T01:18:55.322Z,8.57
2022-11-22T01:23:56.663Z,8.50
2022-11-22T01:28:58.054Z,6.55
2022-11-22T01:34:00.000Z,7.53
2022-11-22T01:39:01.493Z,3.42
2022-11-22T01:44:20.106Z,8.02
2022-11-22T01:49:31.227Z,6.32
2022-11-22T01:54:36.076Z,9.05
2022-11-22T01:59:44.522Z,8.30
2022-11-22T02:04:47.278Z,16.65
2022-11-22T02:09:51.896Z,9.88
2022-11-22T02:14:54.082Z,4.72
2022-11-22T02:19:55.811Z,8.80
2022-11-22T02:25:03.149Z,14.45
2022-11-22T02:30:05.127Z,11.85
2022-11-22T02:35:20.133Z,7.80
2022-11-22T02:40:22.573Z,8.30
2022-11-22T02:45:24.259Z,11.10
2022-11-22T02:50:25.607Z,12.10
2022-11-22T02:55:26.970Z,9.82
2022-11-22T03:00:28.618Z,10.63
2022-11-22T03:05:30.001Z,10.23
2022-11-22T03:10:31.561Z,13.05
2022-11-22T03:15:32.953Z,8.85
2022-11-22T03:20:34.368Z,9.65
2022-11-22T03:25:39.163Z,8.02
2022-11-22T03:46:20.630Z,13.05
2022-11-22T03:51:21.990Z,12.05
2022-11-22T03:56:23.339Z,12.60
2022-11-22T04:01:24.954Z,11.77
2022-11-22T04:06:26.355Z,13.75
2022-11-22T04:11:27.895Z,10.50
2022-11-22T04:16:29.237Z,16.90
2022-11-22T04:21:36.349Z,15.10
2022-11-22T04:26:37.763Z,15.00
2022-11-22T04:31:57.571Z,18.30
2022-11-22T04:36:59.329Z,21.02
2022-11-22T04:42:19.568Z,18.55
2022-11-22T04:47:39.693Z,16.58
2022-11-22T05:03:15.365Z,18.63
2022-11-22T05:08:16.883Z,20.48
2022-11-22T05:13:20.036Z,18.70
2022-11-22T05:18:23.066Z,19.05
2022-11-22T05:23:43.413Z,18.70
2022-11-22T05:28:45.050Z,15.88
2022-11-22T05:33:46.595Z,19.92
2022-11-22T05:38:48.944Z,20.73
2022-11-22T05:43:50.860Z,16.80
2022-11-22T05:48:53.479Z,18.88
2022-11-22T05:53:59.107Z,17.75
2022-11-22T05:59:07.245Z,13.98
2022-11-22T06:04:08.786Z,19.75
2022-11-22T06:09:10.221Z,13.65
2022-11-22T06:14:11.700Z,13.30
2022-11-22T06:19:13.789Z,15.48
2022-11-22T06:24:15.361Z,15.70
2022-11-22T06:29:16.971Z,25.30
2022-11-22T06:34:18.506Z,15.35
2022-11-22T06:39:20.013Z,15.25
2022-11-22T06:44:21.882Z,8.52
2022-11-22T06:49:23.368Z,9.80
2022-11-22T06:54:24.765Z,12.35
2022-11-22T06:59:26.124Z,18.77
2022-11-22T07:04:27.848Z,12.15
2022-11-22T07:09:29.553Z,11.85
2022-11-22T07:14:31.584Z,26.70
2022-11-22T07:19:33.335Z,27.85
2022-11-22T07:24:34.736Z,19.30
2022-11-22T07:29:36.109Z,12.52
2022-11-22T07:34:37.470Z,16.95
2022-11-22T07:39:38.970Z,16.52
2022-11-22T07:44:40.321Z,17.60
2022-11-22T07:49:41.670Z,16.13
2022-11-22T07:54:43.066Z,20.20
2022-11-22T07:59:44.403Z,15.77
2022-11-22T08:04:46.363Z,16.30
2022-11-22T08:09:47.687Z,14.35
2022-11-22T08:14:49.042Z,14.52
2022-11-22T08:19:53.387Z,13.30
2022-11-22T08:24:54.763Z,12.27
2022-11-22T08:29:56.104Z,11.15
2022-11-22T08:34:57.447Z,16.27
2022-11-22T08:39:58.816Z,13.63
2022-11-22T08:45:00.169Z,15.80
2022-11-22T08:50:01.497Z,5.50
2022-11-22T08:55:02.939Z,9.60
2022-11-22T09:00:06.208Z,15.65
2022-11-22T09:05:07.905Z,10.88
2022-11-22T09:10:09.454Z,11.88
2022-11-22T09:15:11.093Z,12.90
2022-11-22T09:20:12.747Z,4.05
2022-11-22T09:25:14.107Z,10.25
2022-11-22T09:30:15.739Z,9.00
2022-11-22T09:35:20.031Z,9.02
2022-11-22T09:40:21.408Z,8.70
2022-11-22T09:45:52.576Z,10.90
2022-11-22T09:51:20.019Z,9.68
2022-11-22T09:56:24.797Z,13.82
2022-11-22T10:01:32.662Z,10.15
2022-11-22T10:06:37.492Z,7.07
2022-11-22T10:11:49.320Z,6.40
2022-11-22T10:17:07.011Z,14.38
2022-11-22T10:27:16.682Z,7.17
2022-11-22T10:32:18.238Z,9.18
2022-11-22T10:37:34.230Z,11.60
2022-11-22T10:42:57.636Z,11.30
2022-11-22T10:48:08.685Z,6.78
2022-11-22T10:53:22.786Z,5.55
2022-11-22T10:59:04.313Z,6.80
2022-11-22T11:04:08.000Z,8.57
2022-11-22T11:15:34.083Z,6.30
2022-11-22T11:20:39.098Z,8.63
2022-11-22T11:25:43.342Z,6.32
2022-11-22T11:31:07.877Z,9.20
2022-11-22T11:36:21.965Z,6.70
2022-11-22T11:41:32.288Z,7.78
2022-11-22T11:46:36.821Z,12.18
2022-11-22T11:51:41.275Z,4.72
2022-11-22T11:57:03.527Z,4.63
2022-11-22T12:02:15.080Z,6.80
2022-11-22T12:07:46.719Z,7.93
2022-11-22T12:13:04.040Z,4.95
2022-11-22T12:23:26.925Z,5.75
2022-11-22T12:28:29.181Z,5.43
2022-11-22T12:33:37.211Z,11.20
2022-11-22T12:38:44.560Z,4.53
2022-11-22T12:43:53.308Z,7.57
2022-11-22T12:49:33.038Z,8.27
2022-11-22T12:54:44.536Z,7.32
2022-11-22T12:59:53.300Z,10.23
2022-11-22T13:05:01.624Z,4.65
2022-11-22T13:10:11.391Z,10.68
2022-11-22T13:15:16.839Z,6.85
2022-11-22T13:20:21.589Z,6.15
2022-11-22T13:25:41.573Z,3.38
2022-11-22T13:31:07.391Z,3.70
2022-11-22T13:36:26.916Z,4.68
2022-11-22T13:41:37.144Z,5.53
2022-11-22T13:47:00.503Z,4.50
2022-11-22T13:52:25.904Z,3.03
2022-11-22T13:57:35.578Z,15.40
2022-11-22T14:02:37.858Z,6.57
2022-11-22T14:07:40.775Z,3.65
2022-11-22T14:12:54.345Z,2.55
2022-11-22T14:18:24.821Z,5.25
2022-11-22T14:23:50.642Z,3.03
2022-11-22T14:29:16.867Z,4.65
2022-11-22T14:34:24.581Z,9.90
2022-11-22T14:39:44.212Z,3.72
2022-11-22T14:44:46.832Z,5.55
2022-11-22T14:49:50.457Z,1.85
2022-11-22T14:55:00.549Z,6.88
2022-11-22T15:00:22.431Z,4.03
2022-11-22T15:09:23.875Z,1.27
2022-11-22T15:11:46.012Z,2.45
2022-11-22T16:00:26.705Z,0.60
2022-11-22T16:06:08.978Z,2.75
2022-11-22T16:10:56.730Z,3.25
2022-11-22T16:16:10.264Z,3.13
2022-11-22T16:21:11.591Z,2.97
2022-11-22T16:26:19.405Z,5.32
2022-11-22T16:31:27.294Z,1.27
2022-11-22T16:36:29.917Z,2.20
2022-11-22T16:41:31.347Z,3.83
2022-11-22T16:46:32.712Z,2.92
2022-11-22T16:51:34.254Z,1.55
2022-11-22T16:56:35.604Z,3.35
2022-11-22T17:01:37.619Z,1.50
2022-11-22T17:06:38.972Z,1.85
2022-11-22T17:11:43.150Z,2.40
2022-11-22T17:16:48.505Z,1.15
2022-11-22T17:21:49.880Z,2.75
2022-11-22T17:26:51.222Z,2.95
2022-11-22T17:31:52.541Z,2.20
2022-11-22T17:36:53.862Z,1.98
2022-11-22T17:41:55.225Z,1.80
2022-11-22T17:46:56.561Z,3.65
2022-11-22T17:51:57.953Z,3.50
2022-11-22T17:56:59.364Z,1.23
2022-11-22T18:02:00.688Z,3.40
2022-11-22T18:07:02.032Z,3.17
2022-11-22T18:12:03.593Z,5.47
2022-11-22T18:17:04.941Z,1.67
2022-11-22T18:22:06.291Z,4.20
2022-11-22T18:27:07.817Z,2.47
2022-11-22T18:32:09.790Z,3.38
2022-11-22T18:37:11.173Z,3.72
2022-11-22T18:42:15.153Z,1.38
2022-11-22T18:47:16.965Z,1.55
2022-11-22T18:52:18.414Z,2.53
2022-11-22T18:57:19.817Z,1.80
2022-11-22T19:02:25.659Z,1.30
2022-11-22T19:07:27.047Z,2.13
2022-11-22T19:12:28.994Z,3.80
2022-11-22T19:17:30.337Z,3.97
2022-11-22T19:22:31.658Z,2.75
2022-11-22T19:27:33.003Z,4.43
2022-11-22T19:32:34.358Z,3.47
2022-11-22T19:37:36.794Z,4.20
2022-11-22T19:42:39.851Z,4.32
2022-11-22T19:47:41.173Z,5.63
2022-11-22T19:52:42.594Z,3.75
2022-11-22T19:57:43.970Z,2.65
2022-11-22T20:02:45.347Z,8.05
2022-11-22T20:07:46.781Z,7.35
2022-11-22T20:12:49.543Z,4.60
2022-11-22T20:17:50.948Z,3.10
2022-11-22T20:22:52.300Z,5.50
2022-11-22T20:27:53.647Z,6.68
2022-11-22T20:32:54.979Z,4.90
2022-11-22T20:37:56.357Z,8.00
2022-11-22T20:42:57.713Z,8.55
2022-11-22T20:47:59.068Z,6.53
2022-11-22T20:53:00.413Z,9.55
2022-11-22T20:58:01.757Z,6.93
2022-11-22T21:03:03.126Z,5.28
2022-11-22T21:08:05.435Z,5.15
2022-11-22T21:13:07.062Z,8.35
2022-11-22T21:18:24.626Z,6.03
2022-11-22T21:23:26.797Z,7.53
2022-11-22T21:28:28.285Z,7.10
2022-11-22T21:33:32.661Z,5.43
2022-11-22T21:38:35.029Z,9.05
2022-11-22T21:43:36.416Z,9.95
2022-11-22T21:48:37.839Z,7.18
2022-11-22T21:53:39.205Z,5.68
2022-11-22T21:58:42.172Z,4.97
2022-11-22T22:03:43.519Z,6.13
2022-11-22T22:08:44.902Z,6.70
2022-11-22T22:13:46.318Z,4.78
2022-11-22T22:18:47.729Z,7.75
2022-11-22T22:23:49.250Z,4.93
2022-11-22T22:28:52.426Z,8.02
2022-11-22T22:33:55.436Z,6.78
2022-11-22T22:38:56.787Z,6.28
2022-11-22T22:43:58.159Z,9.55
2022-11-22T22:49:00.141Z,9.20
2022-11-22T22:54:01.623Z,10.07
2022-11-22T22:59:05.113Z,7.45
2022-11-22T23:04:06.638Z,10.43
2022-11-22T23:09:10.682Z,9.80
2022-11-22T23:14:13.611Z,9.00
2022-11-22T23:19:15.182Z,5.32
2022-11-22T23:24:16.561Z,3.08
2022-11-22T23:29:18.014Z,7.75
2022-11-22T23:34:19.854Z,5.03
2022-11-22T23:39:21.207Z,7.28
2022-11-22T23:44:22.547Z,7.75
2022-11-22T23:49:23.913Z,6.15
2022-11-22T23:54:25.246Z,4.20
2022-11-22T23:59:26.576Z,4.00
